Time;durP1;ratioP1;P1;durP2;ratioP2;P2;SDS_P1;SDS_P2;PMS_P1;PMS_P2;Temp;Humidity;BMP_temperature;BMP_pressure;BME280_temperature;BME280_humidity;BME280_pressure;Samples;Min_cycle;Max_cycle;Signal;HPM_P1;HPM_P2
2023/11/13 00:00:22;;;;;;;69.60;34.70;;;;;;;6.55;100.00;100295.75;4918837;28;20039;-76
2023/11/13 00:02:48;;;;;;;69.03;33.63;;;;;;;6.54;100.00;100294.09;4923738;28;20047;-76
2023/11/13 00:05:13;;;;;;;69.30;33.40;;;;;;;6.53;100.00;100279.13;4914423;28;20363;-76
2023/11/13 00:07:39;;;;;;;64.53;34.17;;;;;;;6.52;100.00;100272.19;4913805;29;20488;-76
2023/11/13 00:10:08;;;;;;;64.22;32.40;;;;;;;6.38;100.00;100278.81;4918425;29;20755;-76
2023/11/13 00:12:33;;;;;;;;;;;;;;;6.50;100.00;100277.63;4910459;28;20040;-75
2023/11/13 00:14:59;;;;;;;71.10;33.70;;;;;;;6.48;100.00;100284.06;4931138;29;19988;-76
2023/11/13 00:17:24;;;;;;;67.93;33.10;;;;;;;6.39;100.00;100266.38;4915137;29;20551;-76
2023/11/13 00:19:49;;;;;;;74.30;34.85;;;;;;;6.41;100.00;100272.38;4912003;29;20040;-76
2023/11/13 00:22:15;;;;;;;63.40;32.97;;;;;;;6.53;100.00;100280.00;4908973;28;20066;-76
2023/11/13 00:24:41;;;;;;;66.25;31.95;;;;;;;6.63;100.00;100273.81;4909182;29;20450;-76
2023/11/13 00:27:06;;;;;;;64.00;32.90;;;;;;;6.41;100.00;100264.41;4910452;29;20512;-77
2023/11/13 00:29:31;;;;;;;71.53;34.30;;;;;;;6.56;100.00;100276.22;4908363;28;20046;-75
2023/11/13 00:31:57;;;;;;;69.50;34.67;;;;;;;6.45;100.00;100265.78;4925494;28;20312;-76
2023/11/13 00:34:22;;;;;;;63.60;35.03;;;;;;;6.43;100.00;100257.97;4919162;28;20284;-75
2023/11/13 00:36:50;;;;;;;70.25;34.83;;;;;;;6.54;100.00;100262.25;4924268;28;20506;-75
2023/11/13 00:39:17;;;;;;;68.65;36.97;;;;;;;6.43;100.00;100246.53;4921032;28;20043;-76
2023/11/13 00:41:42;;;;;;;77.25;36.67;;;;;;;6.46;100.00;100260.34;4931426;29;20036;-75
2023/11/13 00:44:08;;;;;;;76.28;38.53;;;;;;;6.38;100.00;100259.41;4919385;28;20405;-75
2023/11/13 00:46:33;;;;;;;71.20;35.78;;;;;;;6.40;100.00;100260.09;4934634;28;20039;-76
2023/11/13 00:48:59;;;;;;;75.17;36.63;;;;;;;6.44;100.00;100278.22;4901764;28;20063;-75
2023/11/13 00:51:24;;;;;;;80.90;38.90;;;;;;;6.45;100.00;100279.88;4913677;29;20385;-75
2023/11/13 00:53:49;;;;;;;77.63;36.13;;;;;;;6.49;100.00;100285.75;4908213;28;20040;-75
2023/11/13 00:56:16;;;;;;;76.15;37.58;;;;;;;6.39;100.00;100283.16;4912912;28;20039;-76
2023/11/13 00:58:42;;;;;;;74.45;36.75;;;;;;;6.46;100.00;100288.66;4943413;29;20170;-75
2023/11/13 01:01:10;;;;;;;74.32;37.60;;;;;;;6.45;100.00;100287.84;4950934;28;20147;-76
2023/11/13 01:03:35;;;;;;;71.10;34.97;;;;;;;6.36;100.00;100280.75;4921659;29;20195;-75
2023/11/13 01:06:02;;;;;;;72.05;36.80;;;;;;;6.39;100.00;100271.69;4910218;28;20185;-76
2023/11/13 01:08:28;;;;;;;79.20;37.90;;;;;;;6.36;100.00;100271.97;4926861;28;20118;-76
2023/11/13 01:10:53;;;;;;;81.70;39.17;;;;;;;6.41;100.00;100283.81;4941012;28;20653;-75
2023/11/13 01:13:20;;;;;;;69.72;35.85;;;;;;;6.28;100.00;100270.91;4920585;28;20040;-75
2023/11/13 01:16:04;;;;;;;84.20;39.15;;;;;;;6.43;100.00;100267.75;4940604;29;20066;-76
2023/11/13 01:18:53;;;;;;;82.20;38.60;;;;;;;6.34;100.00;100264.16;4920560;29;20101;-76
2023/11/13 01:21:20;;;;;;;79.60;38.97;;;;;;;6.38;100.00;100262.06;4934954;28;20028;-77
2023/11/13 01:23:45;;;;;;;86.18;41.65;;;;;;;6.33;100.00;100262.50;4903070;28;20044;-76
2023/11/13 01:26:10;;;;;;;83.27;37.83;;;;;;;6.30;100.00;100260.97;4909644;29;20047;-76
2023/11/13 01:28:36;;;;;;;86.47;38.87;;;;;;;6.38;100.00;100262.06;4907431;28;20043;-76
2023/11/13 01:31:02;;;;;;;93.60;42.47;;;;;;;6.39;100.00;100259.28;4916084;28;20036;-76
2023/11/13 01:33:27;;;;;;;95.68;43.33;;;;;;;6.26;100.00;100262.25;4902607;28;20036;-76
2023/11/13 01:35:52;;;;;;;78.63;40.53;;;;;;;6.33;100.00;100273.13;4926731;29;20499;-76
2023/11/13 01:38:18;;;;;;;84.13;40.50;;;;;;;6.26;100.00;100272.84;4921692;29;20036;-76
2023/11/13 01:40:46;;;;;;;90.88;39.28;;;;;;;6.39;100.00;100263.72;4923228;29;20503;-76
2023/11/13 01:43:19;;;;;;;83.93;41.22;;;;;;;6.38;100.00;100267.38;4920785;28;20071;-76
2023/11/13 01:45:45;;;;;;;94.32;44.40;;;;;;;6.45;100.00;100268.44;4918725;28;20036;-76
2023/11/13 01:48:10;;;;;;;95.25;44.50;;;;;;;6.40;100.00;100263.59;4915790;28;20094;-76
2023/11/13 01:50:36;;;;;;;94.72;43.50;;;;;;;6.42;100.00;100255.50;4922068;29;20722;-76
2023/11/13 01:53:02;;;;;;;84.07;42.15;;;;;;;6.25;100.00;100251.78;4916505;28;20054;-76
2023/11/13 01:55:29;;;;;;;84.28;40.42;;;;;;;6.27;100.00;100245.34;4911568;28;20127;-76
2023/11/13 01:57:54;;;;;;;92.05;44.50;;;;;;;6.32;100.00;100256.38;4925264;28;20044;-76
2023/11/13 02:00:20;;;;;;;89.00;42.47;;;;;;;6.26;100.00;100248.16;4921173;28;20094;-76
2023/11/13 02:02:46;;;;;;;88.68;42.92;;;;;;;6.04;100.00;100239.63;4918382;29;20040;-76
2023/11/13 02:05:12;;;;;;;90.53;42.90;;;;;;;6.27;100.00;100257.78;4918178;29;20040;-76
2023/11/13 02:07:41;;;;;;;88.65;41.38;;;;;;;6.23;100.00;100254.59;4909776;28;20186;-76
2023/11/13 02:10:07;;;;;;;83.47;41.50;;;;;;;6.31;100.00;100267.94;4926239;28;20454;-76
2023/11/13 02:12:34;;;;;;;88.90;42.78;;;;;;;6.34;100.00;100264.16;4910629;28;20032;-76
2023/11/13 02:15:02;;;;;;;91.65;42.92;;;;;;;6.37;100.00;100270.97;4930741;28;20028;-76
2023/11/13 02:17:27;;;;;;;90.40;42.78;;;;;;;6.25;100.00;100257.94;4915475;28;20493;-76
2023/11/13 02:19:52;;;;;;;84.33;42.83;;;;;;;6.33;100.00;100279.25;4900130;28;20055;-76
2023/11/13 02:22:18;;;;;;;84.32;41.40;;;;;;;6.39;100.00;100276.97;4925955;28;20288;-76
2023/11/13 02:24:44;;;;;;;94.97;43.92;;;;;;;6.25;100.00;100260.59;4910591;28;20032;-76
2023/11/13 02:27:11;;;;;;;81.10;40.20;;;;;;;6.18;100.00;100259.50;4910187;28;20043;-76
2023/11/13 02:29:37;;;;;;;83.22;39.22;;;;;;;6.22;100.00;100254.75;4922400;28;20040;-76
2023/11/13 02:32:02;;;;;;;84.63;39.30;;;;;;;6.00;100.00;100237.41;4966365;28;20058;-75
2023/11/13 02:34:27;;;;;;;88.30;43.53;;;;;;;6.04;100.00;100254.66;4942133;28;20455;-76
2023/11/13 02:36:53;;;;;;;81.30;41.03;;;;;;;6.07;100.00;100251.75;4917655;28;20074;-76
2023/11/13 02:39:19;;;;;;;88.68;42.65;;;;;;;6.03;100.00;100242.41;4918377;28;20106;-75
2023/11/13 02:41:46;;;;;;;82.05;41.92;;;;;;;5.96;100.00;100241.31;4925557;28;20063;-75
2023/11/13 02:44:12;;;;;;;81.75;39.80;;;;;;;5.96;100.00;100246.63;4911511;29;20039;-75
2023/11/13 02:46:38;;;;;;;82.72;40.00;;;;;;;5.86;100.00;100252.75;4926334;29;20138;-75
2023/11/13 02:49:04;;;;;;;83.82;41.15;;;;;;;5.96;100.00;100247.44;4925427;28;20063;-76
2023/11/13 02:51:29;;;;;;;81.50;40.58;;;;;;;5.88;100.00;100242.00;4964709;28;20034;-75
2023/11/13 02:53:55;;;;;;;78.88;37.92;;;;;;;5.83;100.00;100239.78;4950759;28;20695;-75
2023/11/13 02:56:21;;;;;;;86.10;42.80;;;;;;;5.80;100.00;100240.06;4927166;29;20024;-78
2023/11/13 02:58:47;;;;;;;78.63;38.80;;;;;;;5.79;100.00;100241.06;4919199;28;20140;-76
2023/11/13 03:01:16;;;;;;;90.80;42.47;;;;;;;5.85;100.00;100244.94;4925171;28;20778;-75
2023/11/13 03:03:43;;;;;;;84.63;42.70;;;;;;;5.80;100.00;100248.00;4921977;28;20043;-75
2023/11/13 03:06:09;;;;;;;79.88;40.60;;;;;;;5.58;100.00;100229.81;4925336;28;20019;-76
2023/11/13 03:08:34;;;;;;;80.68;40.83;;;;;;;5.71;100.00;100243.56;4898500;28;20048;-78
2023/11/13 03:10:59;;;;;;;79.37;40.00;;;;;;;5.65;100.00;100244.16;4926858;28;20114;-77
2023/11/13 03:13:25;;;;;;;89.15;41.42;;;;;;;5.66;100.00;100243.16;4923850;29;20031;-77
2023/11/13 03:15:50;;;;;;;84.05;38.53;;;;;;;5.64;100.00;100243.34;4936742;29;20036;-78
2023/11/13 03:18:17;;;;;;;86.00;39.55;;;;;;;5.74;100.00;100251.25;4932926;28;20036;-76
2023/11/13 03:20:46;;;;;;;69.75;35.40;;;;;;;5.65;100.00;100233.56;4923089;28;20090;-76
2023/11/13 03:23:12;;;;;;;68.72;35.63;;;;;;;5.55;100.00;100227.44;4908837;28;20023;-76
2023/11/13 03:25:38;;;;;;;72.78;36.38;;;;;;;5.47;100.00;100230.81;4933128;29;20031;-76
2023/11/13 03:28:04;;;;;;;76.45;37.65;;;;;;;5.51;100.00;100237.50;4925124;28;20032;-76
2023/11/13 03:30:32;;;;;;;72.43;35.33;;;;;;;5.60;100.00;100246.41;4925772;29;20570;-75
2023/11/13 03:32:57;;;;;;;71.97;33.08;;;;;;;5.52;100.00;100240.97;4933991;29;20353;-76
2023/11/13 03:35:22;;;;;;;71.57;34.33;;;;;;;5.42;100.00;100236.53;4925550;28;20484;-75
2023/11/13 03:37:48;;;;;;;84.37;36.93;;;;;;;5.34;100.00;100235.56;4906446;28;20032;-76
2023/11/13 03:40:14;;;;;;;71.75;34.83;;;;;;;5.48;100.00;100240.44;4918229;28;20039;-76
2023/11/13 03:42:40;;;;;;;70.50;33.63;;;;;;;5.59;100.00;100248.19;4932642;29;20093;-76
2023/11/13 03:45:07;;;;;;;76.82;34.05;;;;;;;5.53;100.00;100237.38;4900703;28;20027;-76
2023/11/13 03:47:32;;;;;;;65.72;32.63;;;;;;;5.23;100.00;100208.28;4906042;28;20024;-75
2023/11/13 03:49:59;;;;;;;73.22;33.13;;;;;;;5.14;100.00;100216.22;4907495;28;20357;-76
2023/11/13 03:52:24;;;;;;;67.65;33.75;;;;;;;5.10;100.00;100217.47;4940394;29;20040;-76
2023/11/13 03:54:50;;;;;;;78.97;34.43;;;;;;;4.95;100.00;100225.84;4896529;28;20046;-76
2023/11/13 03:57:15;;;;;;;72.68;35.72;;;;;;;5.07;100.00;100239.75;4893689;28;20359;-75
2023/11/13 03:59:41;;;;;;;71.93;32.55;;;;;;;5.01;100.00;100238.53;4894386;28;20488;-75
2023/11/13 04:02:07;;;;;;;82.43;36.08;;;;;;;4.96;100.00;100231.94;4900166;28;20027;-75
2023/11/13 04:04:32;;;;;;;73.72;34.97;;;;;;;4.75;100.00;100229.44;4921550;28;20097;-75
2023/11/13 04:06:57;;;;;;;83.07;35.90;;;;;;;4.69;100.00;100245.88;4908628;28;20024;-76
2023/11/13 04:09:23;;;;;;;81.50;36.73;;;;;;;4.88;100.00;100248.53;4914805;28;20345;-75
2023/11/13 04:11:49;;;;;;;80.70;37.13;;;;;;;4.89;100.00;100242.25;4919698;29;20143;-76
2023/11/13 04:14:15;;;;;;;82.50;36.90;;;;;;;4.94;100.00;100240.03;4938797;28;20043;-76
2023/11/13 04:16:41;;;;;;;72.15;33.95;;;;;;;4.94;100.00;100245.34;4924891;28;20028;-76
2023/11/13 04:19:07;;;;;;;80.57;34.33;;;;;;;4.94;100.00;100247.97;4924117;28;20048;-76
2023/11/13 04:21:32;;;;;;;78.45;34.72;;;;;;;4.71;100.00;100236.81;4900682;28;20027;-76
2023/11/13 04:23:59;;;;;;;79.45;34.25;;;;;;;4.90;100.00;100248.41;4939080;28;20047;-76
2023/11/13 04:26:26;;;;;;;75.90;35.25;;;;;;;4.91;100.00;100245.59;4918477;28;20031;-76
2023/11/13 04:28:53;;;;;;;80.90;33.78;;;;;;;4.97;100.00;100254.81;4905980;28;20028;-76
2023/11/13 04:31:18;;;;;;;79.43;35.55;;;;;;;4.94;100.00;100247.97;4924024;28;20058;-76
2023/11/13 04:33:44;;;;;;;79.97;38.95;;;;;;;4.86;100.00;100238.06;4931916;29;20870;-75
2023/11/13 04:36:09;;;;;;;81.43;36.20;;;;;;;5.02;100.00;100247.28;4899671;29;20114;-76
2023/11/13 04:38:37;;;;;;;74.60;33.88;;;;;;;4.99;100.00;100240.47;4915599;28;20034;-76
2023/11/13 04:41:04;;;;;;;76.03;34.42;;;;;;;4.79;100.00;100230.84;4923779;28;20039;-75
2023/11/13 04:43:29;;;;;;;72.70;33.05;;;;;;;4.87;100.00;100238.94;4935164;28;20495;-75
2023/11/13 04:45:55;;;;;;;80.07;32.10;;;;;;;4.93;100.00;100233.06;4922186;28;20023;-76
2023/11/13 04:48:21;;;;;;;76.45;32.97;;;;;;;4.88;100.00;100235.28;4934899;29;20382;-76
2023/11/13 04:50:47;;;;;;;66.82;31.50;;;;;;;4.85;100.00;100243.53;4939815;28;20024;-75
2023/11/13 04:53:13;;;;;;;73.85;35.40;;;;;;;4.88;100.00;100250.34;4920898;28;20032;-75
2023/11/13 04:55:38;;;;;;;73.88;35.33;;;;;;;4.74;100.00;100241.00;4920126;29;20127;-76
2023/11/13 04:58:03;;;;;;;79.67;36.50;;;;;;;4.75;100.00;100245.28;4914825;29;20043;-76
2023/11/13 05:00:29;;;;;;;77.88;33.63;;;;;;;4.78;100.00;100239.75;4918477;28;20044;-76
2023/11/13 05:02:54;;;;;;;74.83;35.10;;;;;;;4.63;100.00;100234.84;4921124;28;20495;-75
2023/11/13 05:05:20;;;;;;;82.97;37.07;;;;;;;4.67;100.00;100239.88;4911469;28;20059;-76
2023/11/13 05:07:45;;;;;;;77.70;34.50;;;;;;;4.65;100.00;100246.13;4935112;29;20284;-75
2023/11/13 05:10:11;;;;;;;81.43;35.67;;;;;;;4.55;100.00;100237.34;4925684;29;20499;-74
2023/11/13 05:12:36;;;;;;;78.45;34.50;;;;;;;4.64;100.00;100256.84;4906542;28;20039;-74
2023/11/13 05:15:02;;;;;;;78.57;33.17;;;;;;;4.64;100.00;100260.31;4936033;29;20034;-74
2023/11/13 05:17:29;;;;;;;80.80;36.63;;;;;;;4.64;100.00;100249.75;4927950;29;20064;-74
2023/11/13 05:19:54;;;;;;;78.97;33.88;;;;;;;4.60;100.00;100253.63;4941816;28;20032;-74
2023/11/13 05:22:20;;;;;;;83.17;36.53;;;;;;;4.70;100.00;100253.63;4898274;28;20082;-74
2023/11/13 05:24:45;;;;;;;85.70;36.87;;;;;;;4.60;100.00;100232.47;4922779;29;20742;-74
2023/11/13 05:27:10;;;;;;;96.20;36.57;;;;;;;4.41;100.00;100206.00;4921157;29;20114;-74
2023/11/13 05:29:36;;;;;;;97.57;41.50;;;;;;;4.48;100.00;100232.75;4937374;28;20054;-74
2023/11/13 05:32:01;;;;;;;84.77;35.83;;;;;;;4.55;100.00;100255.84;4926099;28;20032;-74
2023/11/13 05:34:26;;;;;;;94.17;38.87;;;;;;;4.49;100.00;100240.50;4932588;29;20288;-74
2023/11/13 05:36:52;;;;;;;91.40;38.50;;;;;;;4.40;100.00;100230.75;4912200;28;20036;-74
2023/11/13 05:39:17;;;;;;;98.20;41.90;;;;;;;4.50;100.00;100246.66;4924628;28;20298;-74
2023/11/13 05:41:43;;;;;;;98.95;40.28;;;;;;;4.42;100.00;100240.25;4942367;28;20062;-74
2023/11/13 05:44:08;;;;;;;100.13;41.80;;;;;;;4.40;100.00;100241.31;4932634;28;20482;-74
2023/11/13 05:46:34;;;;;;;96.90;41.13;;;;;;;4.56;100.00;100261.97;4912656;28;20322;-74
2023/11/13 05:48:59;;;;;;;102.32;41.92;;;;;;;4.41;100.00;100253.59;4917988;28;20063;-74
2023/11/13 05:51:25;;;;;;;103.28;40.25;;;;;;;4.39;100.00;100266.94;4917123;28;20067;-74
2023/11/13 05:53:50;;;;;;;104.38;39.13;;;;;;;4.47;100.00;100265.41;4904319;28;20480;-74
2023/11/13 05:56:16;;;;;;;102.40;40.97;;;;;;;4.17;100.00;100254.75;4923843;28;20071;-74
2023/11/13 05:58:41;;;;;;;110.60;45.05;;;;;;;4.14;100.00;100262.09;4913896;28;20021;-73
2023/11/13 06:01:08;;;;;;;114.05;43.55;;;;;;;4.34;100.00;100281.53;4925583;29;20035;-74
2023/11/13 06:03:33;;;;;;;124.00;47.00;;;;;;;4.22;100.00;100267.56;4927683;29;20558;-74
2023/11/13 06:05:59;;;;;;;120.28;46.25;;;;;;;4.25;100.00;100269.09;4930666;29;20059;-74
2023/11/13 06:08:24;;;;;;;111.22;43.72;;;;;;;4.19;100.00;100271.31;4916044;28;20411;-75
2023/11/13 06:10:49;;;;;;;124.57;42.93;;;;;;;4.13;100.00;100269.19;4894223;28;20483;-74
2023/11/13 06:13:15;;;;;;;108.75;43.70;;;;;;;4.27;100.00;100267.19;4920557;29;20342;-74
2023/11/13 06:15:40;;;;;;;96.33;39.90;;;;;;;4.15;100.00;100269.06;4929400;29;20034;-74
2023/11/13 06:18:07;;;;;;;115.90;47.33;;;;;;;3.93;100.00;100270.06;4916339;28;20341;-74
2023/11/13 06:20:33;;;;;;;123.05;46.05;;;;;;;4.06;100.00;100286.56;4911487;28;20048;-74
2023/11/13 06:23:01;;;;;;;131.73;46.83;;;;;;;3.99;100.00;100288.88;4926146;29;20032;-74
2023/11/13 06:25:26;;;;;;;140.45;48.42;;;;;;;3.87;100.00;100292.56;4891288;28;20036;-74
2023/11/13 06:27:53;;;;;;;130.05;46.58;;;;;;;3.99;100.00;100290.69;4907200;28;20069;-74
2023/11/13 06:30:18;;;;;;;127.00;48.72;;;;;;;4.00;100.00;100292.34;4901525;28;20039;-74
2023/11/13 06:32:47;;;;;;;145.32;50.60;;;;;;;4.05;100.00;100290.16;4925649;28;20083;-74
2023/11/13 06:35:13;;;;;;;131.30;48.80;;;;;;;4.10;100.00;100297.72;4933749;29;20032;-74
2023/11/13 06:37:40;;;;;;;132.80;51.80;;;;;;;4.08;100.00;100278.50;4896607;28;20028;-75
2023/11/13 06:40:06;;;;;;;134.85;49.13;;;;;;;3.86;100.00;100282.94;4930166;28;20091;-74
2023/11/13 06:42:32;;;;;;;173.23;49.60;;;;;;;3.81;100.00;100280.69;4925357;28;20027;-74
2023/11/13 06:44:58;;;;;;;138.23;53.17;;;;;;;4.07;100.00;100292.66;4926293;28;20062;-74
2023/11/13 06:47:23;;;;;;;133.38;48.63;;;;;;;3.94;100.00;100280.50;4941804;28;20311;-74
2023/11/13 06:49:49;;;;;;;150.83;49.33;;;;;;;3.86;100.00;100287.41;4927113;28;20027;-74
2023/11/13 06:52:14;;;;;;;129.77;47.95;;;;;;;3.94;100.00;100292.88;4925806;28;20035;-74
2023/11/13 06:54:40;;;;;;;148.00;51.65;;;;;;;3.83;100.00;100290.31;4910380;28;20032;-74
2023/11/13 06:57:07;;;;;;;153.10;51.22;;;;;;;3.96;100.00;100283.88;4922451;29;20036;-74
2023/11/13 06:59:32;;;;;;;165.57;55.35;;;;;;;4.11;100.00;100279.06;4927279;29;20391;-74
2023/11/13 07:01:57;;;;;;;130.57;50.47;;;;;;;4.23;100.00;100275.34;4925451;29;20032;-74
2023/11/13 07:04:24;;;;;;;135.32;51.80;;;;;;;4.20;100.00;100270.34;4926150;29;20043;-74
2023/11/13 07:06:50;;;;;;;141.70;55.33;;;;;;;4.35;100.00;100276.09;4935107;29;20028;-75
2023/11/13 07:09:15;;;;;;;135.80;51.08;;;;;;;4.46;100.00;100271.69;4930336;28;20048;-75
2023/11/13 07:11:48;;;;;;;152.68;53.00;;;;;;;4.35;100.00;100268.16;4947223;28;20043;-74
2023/11/13 07:14:15;;;;;;;144.40;51.20;;;;;;;4.44;100.00;100258.59;4939511;28;20046;-74
2023/11/13 07:16:41;;;;;;;136.07;50.72;;;;;;;4.40;100.00;100262.47;4936679;28;20059;-74
2023/11/13 07:19:06;;;;;;;151.25;51.28;;;;;;;4.34;100.00;100257.75;4941490;29;20182;-74
2023/11/13 07:21:33;;;;;;;144.20;49.72;;;;;;;4.03;100.00;100247.19;4926648;29;20120;-74
2023/11/13 07:23:59;;;;;;;;;;;;;;;3.97;100.00;100250.34;4926940;29;20035;-75
2023/11/13 07:26:26;;;;;;;126.55;46.67;;;;;;;4.09;100.00;100248.47;4910160;29;19915;-74
2023/11/13 07:28:51;;;;;;;142.68;51.45;;;;;;;4.17;100.00;100252.13;4926811;29;20077;-74
2023/11/13 07:31:17;;;;;;;126.65;52.90;;;;;;;4.30;100.00;100253.69;4940767;28;20070;-74
2023/11/13 07:33:42;;;;;;;120.43;50.60;;;;;;;4.16;100.00;100226.66;4917603;29;20024;-75
2023/11/13 07:36:11;;;;;;;121.30;45.85;;;;;;;4.30;100.00;100229.91;4917974;29;20457;-74
2023/11/13 07:38:36;;;;;;;108.88;45.90;;;;;;;4.31;100.00;100237.69;4925638;29;20067;-74
2023/11/13 07:41:02;;;;;;;97.07;43.08;;;;;;;4.23;100.00;100237.53;4926976;28;20119;-75
2023/11/13 07:43:28;;;;;;;104.95;42.25;;;;;;;4.51;100.00;100238.56;4925524;29;20036;-74
2023/11/13 07:45:54;;;;;;;94.82;40.47;;;;;;;4.46;100.00;100230.22;4925537;29;20020;-74
2023/11/13 07:48:19;;;;;;;93.47;39.40;;;;;;;3.96;100.00;100207.25;4925069;29;20301;-74
2023/11/13 07:50:45;;;;;;;84.37;37.10;;;;;;;3.95;100.00;100220.59;4924640;29;20059;-75
2023/11/13 07:53:10;;;;;;;88.17;35.10;;;;;;;4.16;100.00;100215.25;4924865;29;20043;-74
2023/11/13 07:55:35;;;;;;;83.07;35.23;;;;;;;4.39;100.00;100213.22;4940576;29;20050;-75
2023/11/13 07:58:01;;;;;;;101.20;37.97;;;;;;;4.35;100.00;100198.59;4924714;28;20288;-74
2023/11/13 08:00:26;;;;;;;95.77;37.13;;;;;;;4.19;100.00;100189.41;4916580;29;20059;-74
2023/11/13 08:02:52;;;;;;;107.50;38.80;;;;;;;3.98;100.00;100181.56;4924931;28;20035;-74
2023/11/13 08:05:17;;;;;;;102.22;37.97;;;;;;;3.66;100.00;100172.94;4924747;29;20031;-74
2023/11/13 08:07:44;;;;;;;100.40;36.53;;;;;;;3.74;100.00;100202.97;4925123;29;20043;-74
2023/11/13 08:10:13;;;;;;;104.55;37.55;;;;;;;3.71;100.00;100211.16;4911803;28;20081;-74
2023/11/13 08:12:46;;;;;;;107.65;38.00;;;;;;;3.83;100.00;100222.50;4924885;29;20040;-74
2023/11/13 08:15:13;;;;;;;89.05;35.58;;;;;;;3.98;100.00;100233.53;4940761;29;20468;-74
2023/11/13 08:17:43;;;;;;;116.60;38.35;;;;;;;4.05;100.00;100217.97;4926591;29;20086;-74
2023/11/13 08:20:15;;;;;;;159.00;39.33;;;;;;;3.95;100.00;100202.94;4909412;28;20067;-75
2023/11/13 08:22:42;;;;;;;161.23;40.13;;;;;;;3.89;100.00;100190.28;4925015;28;20101;-74
2023/11/13 08:25:12;;;;;;;111.90;39.35;;;;;;;3.64;100.00;100173.06;4926398;29;20027;-74
2023/11/13 08:27:41;;;;;;;107.82;40.70;;;;;;;3.78;100.00;100188.56;4925165;29;20031;-74
2023/11/13 08:30:08;;;;;;;99.93;39.03;;;;;;;4.12;100.00;100198.84;4925091;29;20077;-74
2023/11/13 08:32:34;;;;;;;103.90;39.13;;;;;;;4.31;100.00;100202.50;4924779;29;20611;-74
2023/11/13 08:35:06;;;;;;;101.28;37.78;;;;;;;4.20;100.00;100191.06;4909649;29;20058;-74
2023/11/13 08:37:32;;;;;;;114.82;36.50;;;;;;;4.33;100.00;100193.47;4942921;28;20042;-74
2023/11/13 08:40:00;;;;;;;92.10;35.80;;;;;;;4.29;100.00;100170.09;4928518;28;20023;-76
2023/11/13 08:42:26;;;;;;;98.93;37.85;;;;;;;4.69;100.00;100183.22;4927896;29;20039;-74
2023/11/13 08:44:53;;;;;;;88.90;34.75;;;;;;;4.57;100.00;100171.94;4929661;29;20073;-74
2023/11/13 08:47:21;;;;;;;76.90;32.50;;;;;;;5.08;100.00;100184.06;4929483;29;20131;-74
2023/11/13 08:49:46;;;;;;;76.82;32.70;;;;;;;5.16;100.00;100161.34;4912210;28;20246;-74
2023/11/13 08:52:11;;;;;;;67.83;30.43;;;;;;;5.58;100.00;100147.72;4927854;28;20058;-74
2023/11/13 08:54:38;;;;;;;72.73;31.47;;;;;;;5.53;100.00;100124.34;4928252;28;20315;-74
2023/11/13 08:57:07;;;;;;;62.78;29.27;;;;;;;5.87;100.00;100113.97;4928005;29;20333;-75
2023/11/13 08:59:35;;;;;;;64.25;28.95;;;;;;;6.68;100.00;100113.19;4958920;28;20586;-74
2023/11/13 09:02:07;;;;;;;52.13;28.42;;;;;;;7.18;100.00;100067.44;4953873;28;20082;-74
2023/11/13 09:04:34;;;;;;;56.13;25.50;;;;;;;7.32;100.00;100022.72;4917730;28;20669;-74
2023/11/13 09:07:09;;;;;;;52.30;25.55;;;;;;;7.51;100.00;99966.66;4925545;28;20030;-75
2023/11/13 09:09:35;;;;;;;54.33;25.15;;;;;;;7.02;100.00;99881.53;4911590;28;20035;-75
2023/11/13 09:12:03;;;;;;;52.17;24.92;;;;;;;7.06;100.00;99851.06;4927121;28;20569;-74
2023/11/13 09:14:34;;;;;;;38.30;22.08;;;;;;;9.04;100.00;99975.03;4930604;28;20024;-74
2023/11/13 09:17:09;;;;;;;41.90;21.70;;;;;;;9.62;100.00;99799.69;4940538;28;20117;-74
2023/11/13 09:19:38;;;;;;;39.25;20.35;;;;;;;10.24;100.00;99635.91;4927463;28;20058;-74
2023/11/13 09:22:07;;;;;;;42.03;22.33;;;;;;;8.71;100.00;99464.19;4927832;28;20199;-74
2023/11/13 09:24:36;;;;;;;36.13;18.88;;;;;;;9.56;100.00;99669.84;4920658;28;20036;-74
2023/11/13 09:27:02;;;;;;;33.35;17.92;;;;;;;9.61;100.00;99479.09;4924062;28;20036;-75
2023/11/13 09:29:27;;;;;;;32.93;17.47;;;;;;;9.63;100.00;99398.97;4926961;28;20047;-75
2023/11/13 09:31:52;;;;;;;33.10;17.37;;;;;;;9.10;100.00;99353.91;4926502;28;20281;-75
2023/11/13 09:34:18;;;;;;;30.73;17.20;;;;;;;9.68;100.00;99321.94;4927208;28;20036;-74
2023/11/13 09:36:44;;;;;;;35.45;16.70;;;;;;;8.71;100.00;99120.94;4927026;29;20055;-74
2023/11/13 09:39:10;;;;;;;25.45;14.40;;;;;;;8.71;100.00;99466.00;4928138;29;20051;-74
2023/11/13 09:41:45;;;;;;;30.90;15.83;;;;;;;8.46;100.00;99452.94;4926847;28;20407;-74
2023/11/13 09:44:11;;;;;;;28.73;15.48;;;;;;;9.93;100.00;99472.47;4926956;28;20105;-75
2023/11/13 09:46:39;;;;;;;29.08;14.00;;;;;;;10.90;100.00;99382.13;4927264;28;20082;-74
2023/11/13 09:49:10;;;;;;;24.40;13.85;;;;;;;10.39;100.00;99086.28;4928009;28;20064;-74
2023/11/13 09:51:38;;;;;;;26.30;15.10;;;;;;;9.08;100.00;98928.16;4936009;29;20031;-76
2023/11/13 09:54:04;;;;;;;31.80;16.38;;;;;;;8.67;100.00;99124.97;4926650;28;20174;-76
2023/11/13 09:56:30;;;;;;;29.50;15.95;;;;;;;8.81;100.00;99285.59;4927064;29;20043;-76
2023/11/13 09:58:57;;;;;;;28.35;16.30;;;;;;;8.37;100.00;99267.81;4928018;29;20035;-76
2023/11/13 10:01:23;;;;;;;32.05;16.48;;;;;;;8.23;100.00;99327.97;4925794;29;20377;-75
2023/11/13 10:03:48;;;;;;;21.30;14.30;;;;;;;9.20;100.00;99561.31;4927501;29;20039;-75
2023/11/13 10:06:15;;;;;;;29.08;14.68;;;;;;;8.96;100.00;99250.94;4939311;29;20291;-75
2023/11/13 10:08:46;;;;;;;24.90;15.50;;;;;;;9.23;100.00;99284.03;4939593;29;20416;-75
2023/11/13 10:11:13;;;;;;;29.13;15.27;;;;;;;9.89;100.00;99251.78;4924022;29;20036;-75
2023/11/13 10:13:38;;;;;;;23.13;13.85;;;;;;;9.39;100.00;99149.75;4926660;29;20431;-76
2023/11/13 10:16:18;;;;;;;29.60;14.67;;;;;;;9.95;100.00;99256.34;4947117;28;20038;-75
2023/11/13 10:18:45;;;;;;;25.25;12.18;;;;;;;10.78;100.00;99219.00;4925033;28;20053;-75
2023/11/13 10:21:20;;;;;;;22.15;10.45;;;;;;;10.53;100.00;98979.38;4928018;28;20098;-76
2023/11/13 10:23:45;;;;;;;19.25;11.23;;;;;;;10.87;100.00;98833.34;4926358;28;20503;-76
2023/11/13 10:26:14;;;;;;;23.30;12.73;;;;;;;10.60;100.00;98735.72;4925582;28;20122;-76
2023/11/13 10:28:42;;;;;;;18.65;12.23;;;;;;;9.76;100.00;98521.47;4924302;28;20063;-76
2023/11/13 10:31:16;;;;;;;23.23;10.75;;;;;;;10.80;100.00;99026.63;4915935;28;20033;-76
2023/11/13 10:33:55;;;;;;;22.15;10.02;;;;;;;10.69;100.00;99014.69;4923130;28;20685;-77
2023/11/13 10:36:22;;;;;;;15.35;10.85;;;;;;;10.98;100.00;98992.91;4941519;28;20050;-76
2023/11/13 10:38:48;;;;;;;18.27;9.80;;;;;;;11.19;100.00;98552.97;4928389;28;20049;-76
2023/11/13 10:41:21;;;;;;;17.23;8.68;;;;;;;9.60;100.00;98571.56;4926869;28;20036;-76
2023/11/13 10:43:47;;;;;;;17.02;9.30;;;;;;;10.10;100.00;98885.59;4926217;28;20114;-76
2023/11/13 10:46:27;;;;;;;12.60;8.13;;;;;;;9.80;100.00;99031.72;4925517;28;20036;-76
2023/11/13 10:48:56;;;;;;;21.75;9.55;;;;;;;9.70;100.00;98825.06;4909806;28;20035;-75
2023/11/13 10:51:22;;;;;;;15.63;8.20;;;;;;;10.96;100.00;99068.91;4924783;28;20074;-76
2023/11/13 10:53:48;;;;;;;14.65;8.27;;;;;;;9.93;100.00;98534.13;4925272;28;20125;-76
2023/11/13 10:56:13;;;;;;;10.07;7.65;;;;;;;9.65;100.00;98661.53;4926572;28;20032;-76
2023/11/13 10:58:40;;;;;;;16.15;7.05;;;;;;;9.98;100.00;98888.03;4925058;28;20119;-76
2023/11/13 11:01:16;;;;;;;14.52;7.80;;;;;;;10.02;100.00;98526.72;4959718;28;20028;-76
2023/11/13 11:03:45;;;;;;;14.57;7.47;;;;;;;10.59;100.00;98863.00;4919565;28;20035;-76
2023/11/13 11:06:16;;;;;;;10.55;6.80;;;;;;;10.27;100.00;98606.75;4926397;28;20516;-75